createdAt,value
2022-12-01T00:00:22.741Z,100.00
2022-12-01T00:02:50.579Z,100.00
2022-12-01T00:05:18.205Z,100.00
2022-12-01T00:07:45.730Z,100.00
2022-12-01T00:10:28.339Z,100.00
2022-12-01T00:12:58.039Z,100.00
2022-12-01T00:15:26.885Z,100.00
2022-12-01T00:17:54.397Z,100.00
2022-12-01T00:20:21.900Z,100.00
2022-12-01T00:22:49.801Z,100.00
2022-12-01T00:25:18.159Z,100.00
2022-12-01T00:27:48.428Z,100.00
2022-12-01T00:30:17.721Z,100.00
2022-12-01T00:32:45.553Z,100.00
2022-12-01T00:35:13.410Z,100.00
2022-12-01T00:37:41.012Z,100.00
2022-12-01T00:40:09.130Z,100.00
2022-12-01T00:42:36.716Z,100.00
2022-12-01T00:45:04.380Z,100.00
2022-12-01T00:47:33.171Z,100.00
2022-12-01T00:50:00.656Z,100.00
2022-12-01T00:52:28.278Z,100.00
2022-12-01T00:54:55.732Z,100.00
2022-12-01T00:57:23.193Z,100.00
2022-12-01T00:59:50.900Z,100.00
2022-12-01T01:02:18.737Z,100.00
2022-12-01T01:04:47.692Z,100.00
2022-12-01T01:07:15.131Z,100.00
2022-12-01T01:09:42.645Z,100.00
2022-12-01T01:12:10.120Z,100.00
2022-12-01T01:14:37.728Z,100.00
2022-12-01T01:17:05.290Z,100.00
2022-12-01T01:19:32.776Z,100.00
2022-12-01T01:22:01.649Z,100.00
2022-12-01T01:24:29.181Z,100.00
2022-12-01T01:26:56.677Z,100.00
2022-12-01T01:29:24.133Z,100.00
2022-12-01T01:31:51.676Z,100.00
2022-12-01T01:34:19.219Z,100.00
2022-12-01T01:36:46.752Z,100.00
2022-12-01T01:39:15.600Z,100.00
2022-12-01T01:41:43.228Z,100.00
2022-12-01T01:44:29.443Z,100.00
2022-12-01T01:46:56.981Z,100.00
2022-12-01T01:49:24.504Z,100.00
2022-12-01T01:51:52.606Z,100.00
2022-12-01T01:54:22.183Z,100.00
2022-12-01T01:56:49.780Z,100.00
2022-12-01T01:59:18.580Z,100.00
2022-12-01T02:01:46.245Z,100.00
2022-12-01T02:04:13.806Z,100.00
2022-12-01T02:06:41.326Z,100.00
2022-12-01T02:09:10.807Z,100.00
2022-12-01T02:11:51.876Z,100.00
2022-12-01T02:14:25.049Z,100.00
2022-12-01T02:16:54.307Z,100.00
2022-12-01T02:19:39.521Z,100.00
2022-12-01T02:22:10.334Z,100.00
2022-12-01T02:24:49.731Z,100.00
2022-12-01T02:27:20.588Z,100.00
2022-12-01T02:30:01.681Z,100.00
2022-12-01T02:32:31.745Z,100.00
2022-12-01T02:35:00.180Z,100.00
2022-12-01T02:37:29.951Z,100.00
2022-12-01T02:39:59.087Z,100.00
2022-12-01T02:42:42.600Z,100.00
2022-12-01T02:45:11.388Z,100.00
2022-12-01T02:47:40.276Z,100.00
2022-12-01T02:50:08.484Z,100.00
2022-12-01T02:52:35.963Z,100.00
2022-12-01T02:55:04.164Z,100.00
2022-12-01T02:57:31.685Z,100.00
2022-12-01T02:59:59.275Z,100.00
2022-12-01T03:02:28.726Z,100.00
2022-12-01T03:04:59.797Z,100.00
2022-12-01T03:07:33.206Z,100.00
2022-12-01T03:10:03.268Z,100.00
2022-12-01T03:12:31.887Z,100.00
2022-12-01T03:15:02.115Z,100.00
2022-12-01T03:17:30.129Z,100.00
2022-12-01T03:19:59.523Z,100.00
2022-12-01T03:22:27.221Z,100.00
2022-12-01T03:24:54.975Z,100.00
2022-12-01T03:27:24.025Z,100.00
2022-12-01T03:29:51.998Z,100.00
2022-12-01T03:32:20.455Z,100.00
2022-12-01T03:34:49.791Z,100.00
2022-12-01T03:37:19.817Z,100.00
2022-12-01T03:39:47.626Z,100.00
2022-12-01T03:42:16.689Z,100.00
2022-12-01T03:44:44.643Z,100.00
2022-12-01T03:47:13.288Z,100.00
2022-12-01T03:49:40.879Z,100.00
2022-12-01T03:52:10.747Z,100.00
2022-12-01T03:54:44.996Z,100.00
2022-12-01T03:57:12.847Z,100.00
2022-12-01T03:59:40.368Z,100.00
2022-12-01T04:02:07.964Z,100.00
2022-12-01T04:04:35.486Z,100.00
2022-12-01T04:07:03.204Z,100.00
2022-12-01T04:09:30.729Z,100.00
2022-12-01T04:12:16.947Z,100.00
2022-12-01T04:14:44.448Z,100.00
2022-12-01T04:17:11.960Z,100.00
2022-12-01T04:19:39.670Z,100.00
2022-12-01T04:22:07.111Z,100.00
2022-12-01T04:24:34.636Z,100.00
2022-12-01T04:27:03.443Z,100.00
2022-12-01T04:29:30.871Z,100.00
2022-12-01T04:31:58.339Z,100.00
2022-12-01T04:34:25.771Z,100.00
2022-12-01T04:36:53.314Z,100.00
2022-12-01T04:39:20.776Z,100.00
2022-12-01T04:41:48.305Z,100.00
2022-12-01T04:44:17.658Z,100.00
2022-12-01T04:46:45.235Z,100.00
2022-12-01T04:49:12.769Z,100.00
2022-12-01T04:51:40.196Z,100.00
2022-12-01T04:54:07.684Z,100.00
2022-12-01T04:56:35.202Z,100.00
2022-12-01T04:59:02.764Z,100.00
2022-12-01T05:01:31.679Z,100.00
2022-12-01T05:03:59.229Z,100.00
2022-12-01T05:06:27.227Z,100.00
2022-12-01T05:08:55.789Z,100.00
2022-12-01T05:11:23.407Z,100.00
2022-12-01T05:13:50.985Z,100.00
2022-12-01T05:16:19.705Z,100.00
2022-12-01T05:18:50.507Z,100.00
2022-12-01T05:21:17.188Z,100.00
2022-12-01T05:23:45.555Z,100.00
2022-12-01T05:26:13.001Z,100.00
2022-12-01T05:28:41.089Z,100.00
2022-12-01T05:31:08.602Z,100.00
2022-12-01T05:33:36.127Z,100.00
2022-12-01T05:36:05.201Z,100.00
2022-12-01T05:38:32.791Z,100.00
2022-12-01T05:41:00.264Z,100.00
2022-12-01T05:43:29.538Z,100.00
2022-12-01T05:45:57.658Z,100.00
2022-12-01T05:48:25.313Z,100.00
2022-12-01T05:50:52.855Z,100.00
2022-12-01T05:53:21.719Z,100.00
2022-12-01T05:55:52.335Z,100.00
2022-12-01T05:58:19.840Z,100.00
2022-12-01T06:00:47.351Z,100.00
2022-12-01T06:03:14.823Z,100.00
2022-12-01T06:05:42.305Z,100.00
2022-12-01T06:08:09.808Z,100.00
2022-12-01T06:10:38.625Z,100.00
2022-12-01T06:13:06.086Z,100.00
2022-12-01T06:15:33.540Z,100.00
2022-12-01T06:18:00.972Z,100.00
2022-12-01T06:20:28.503Z,100.00
2022-12-01T06:22:56.027Z,100.00
2022-12-01T06:25:23.671Z,100.00
2022-12-01T06:27:52.507Z,100.00
2022-12-01T06:30:20.036Z,100.00
2022-12-01T06:32:47.559Z,100.00
2022-12-01T06:35:15.139Z,100.00
2022-12-01T06:37:42.573Z,100.00
2022-12-01T06:40:10.766Z,100.00
2022-12-01T06:42:38.300Z,100.00
2022-12-01T06:45:07.756Z,100.00
2022-12-01T06:47:35.273Z,100.00
2022-12-01T06:50:02.804Z,100.00
2022-12-01T06:52:30.281Z,100.00
2022-12-01T06:54:57.749Z,100.00
2022-12-01T06:57:25.388Z,100.00
2022-12-01T06:59:53.344Z,100.00
2022-12-01T07:02:22.825Z,100.00
2022-12-01T07:04:50.337Z,100.00
2022-12-01T07:07:17.796Z,100.00
2022-12-01T07:09:45.305Z,100.00
2022-12-01T07:12:12.839Z,100.00
2022-12-01T07:14:42.366Z,100.00
2022-12-01T07:17:10.249Z,100.00
2022-12-01T07:19:39.188Z,100.00
2022-12-01T07:22:06.620Z,100.00
2022-12-01T07:24:34.130Z,100.00
2022-12-01T07:27:01.637Z,100.00
2022-12-01T07:29:29.125Z,100.00
2022-12-01T07:31:56.684Z,100.00
2022-12-01T07:34:24.192Z,100.00
2022-12-01T07:36:53.075Z,100.00
2022-12-01T07:39:20.551Z,100.00
2022-12-01T07:41:48.052Z,100.00
2022-12-01T07:44:15.559Z,100.00
2022-12-01T07:46:43.148Z,100.00
2022-12-01T07:49:14.771Z,100.00
2022-12-01T07:51:42.322Z,100.00
2022-12-01T07:54:14.221Z,100.00
2022-12-01T07:56:41.936Z,100.00
2022-12-01T07:59:09.496Z,100.00
2022-12-01T08:01:41.543Z,100.00
2022-12-01T08:04:11.813Z,100.00
2022-12-01T08:06:39.326Z,100.00
2022-12-01T08:09:06.910Z,100.00
2022-12-01T08:11:35.996Z,100.00
2022-12-01T08:14:03.508Z,100.00
2022-12-01T08:16:31.367Z,100.00
2022-12-01T08:18:58.811Z,100.00
2022-12-01T08:21:26.442Z,100.00
2022-12-01T08:23:54.397Z,100.00
2022-12-01T08:26:22.261Z,100.00
2022-12-01T08:28:51.202Z,100.00
2022-12-01T08:31:19.854Z,100.00
2022-12-01T08:33:47.550Z,100.00
2022-12-01T08:36:15.308Z,100.00
2022-12-01T08:38:43.832Z,100.00
2022-12-01T08:41:11.663Z,100.00
2022-12-01T08:46:29.364Z,100.00
2022-12-01T08:48:57.534Z,100.00
2022-12-01T08:51:25.473Z,100.00
2022-12-01T08:53:53.031Z,100.00
2022-12-01T08:56:21.255Z,100.00
2022-12-01T08:58:48.854Z,100.00
2022-12-01T09:01:16.785Z,100.00
2022-12-01T09:03:45.761Z,100.00
2022-12-01T09:06:13.858Z,100.00
2022-12-01T09:08:41.479Z,100.00
2022-12-01T09:11:10.655Z,100.00
2022-12-01T09:13:39.528Z,100.00
2022-12-01T09:16:07.871Z,100.00
2022-12-01T09:18:35.411Z,100.00
2022-12-01T09:21:11.725Z,100.00
2022-12-01T09:23:39.653Z,100.00
2022-12-01T09:26:10.901Z,100.00
2022-12-01T09:28:40.959Z,100.00
2022-12-01T09:31:09.016Z,100.00
2022-12-01T09:33:36.550Z,100.00
2022-12-01T09:36:04.608Z,100.00
2022-12-01T09:38:33.955Z,100.00
2022-12-01T09:41:01.913Z,100.00
2022-12-01T09:43:30.388Z,100.00
2022-12-01T09:45:59.690Z,100.00
2022-12-01T09:48:27.922Z,100.00
2022-12-01T09:50:55.832Z,100.00
2022-12-01T09:53:23.812Z,100.00
2022-12-01T09:55:52.629Z,100.00
2022-12-01T09:58:21.139Z,100.00
2022-12-01T10:00:49.466Z,100.00
2022-12-01T10:03:18.836Z,100.00
2022-12-01T10:06:25.053Z,100.00
2022-12-01T10:08:38.700Z,100.00
2022-12-01T10:11:09.964Z,100.00
2022-12-01T10:13:37.592Z,100.00
2022-12-01T10:16:07.216Z,100.00
2022-12-01T10:18:37.128Z,100.00
2022-12-01T10:21:06.620Z,100.00
2022-12-01T10:23:49.034Z,100.00
2022-12-01T10:26:19.101Z,100.00
2022-12-01T10:29:01.147Z,100.00
2022-12-01T10:31:32.063Z,100.00
2022-12-01T10:34:00.850Z,100.00
2022-12-01T10:36:28.381Z,100.00
2022-12-01T10:38:55.912Z,100.00
2022-12-01T10:41:25.085Z,100.00
2022-12-01T10:43:53.312Z,100.00
2022-12-01T10:46:23.193Z,100.00
2022-12-01T10:48:55.967Z,100.00
2022-12-01T10:51:23.668Z,100.00
2022-12-01T10:53:51.141Z,100.00
2022-12-01T10:56:19.415Z,100.00
2022-12-01T10:58:48.955Z,100.00
2022-12-01T11:01:17.356Z,100.00
2022-12-01T11:03:44.934Z,100.00
2022-12-01T11:06:12.444Z,100.00
2022-12-01T11:08:41.566Z,100.00
2022-12-01T11:11:17.408Z,100.00
2022-12-01T11:13:44.893Z,100.00
2022-12-01T11:16:32.609Z,100.00
2022-12-01T11:19:08.010Z,99.21
2022-12-01T11:21:35.573Z,100.00
2022-12-01T11:24:03.086Z,100.00
2022-12-01T11:26:30.824Z,100.00
2022-12-01T11:28:58.931Z,100.00
2022-12-01T11:31:38.022Z,100.00
2022-12-01T11:34:05.684Z,100.00
2022-12-01T11:36:44.997Z,100.00
2022-12-01T11:39:19.863Z,100.00
2022-12-01T11:41:47.333Z,100.00
2022-12-01T11:44:43.027Z,100.00
2022-12-01T11:47:23.131Z,100.00
2022-12-01T11:49:53.397Z,100.00
2022-12-01T11:52:27.325Z,100.00
2022-12-01T11:54:59.031Z,100.00
2022-12-01T11:58:12.621Z,100.00
2022-12-01T12:00:15.065Z,100.00
2022-12-01T12:02:46.191Z,100.00
2022-12-01T12:05:24.414Z,100.00
2022-12-01T12:07:55.369Z,99.98
2022-12-01T12:10:25.959Z,100.00
2022-12-01T12:12:57.711Z,100.00
2022-12-01T12:15:27.069Z,100.00
2022-12-01T12:18:00.282Z,100.00
2022-12-01T12:20:35.615Z,100.00
2022-12-01T12:23:10.427Z,100.00
2022-12-01T12:25:40.960Z,97.28
2022-12-01T12:28:12.560Z,100.00
2022-12-01T12:30:42.585Z,100.00
2022-12-01T12:33:16.067Z,100.00
2022-12-01T12:35:45.439Z,100.00
2022-12-01T12:38:17.455Z,100.00
2022-12-01T12:40:47.005Z,100.00
2022-12-01T12:43:25.020Z,100.00
2022-12-01T12:45:55.293Z,100.00
2022-12-01T12:48:28.240Z,100.00
2022-12-01T12:50:57.139Z,100.00
2022-12-01T12:53:25.546Z,100.00
2022-12-01T12:55:57.587Z,100.00
2022-12-01T12:58:25.478Z,100.00
2022-12-01T13:00:53.703Z,100.00
2022-12-01T13:03:23.190Z,100.00
2022-12-01T13:05:53.753Z,100.00
2022-12-01T13:08:21.741Z,100.00
2022-12-01T13:10:49.915Z,100.00
2022-12-01T13:21:00.086Z,100.00
2022-12-01T13:23:26.195Z,100.00
2022-12-01T13:25:54.940Z,100.00
2022-12-01T13:28:23.791Z,100.00
2022-12-01T13:31:01.353Z,100.00
2022-12-01T13:33:28.928Z,100.00
2022-12-01T13:36:22.528Z,100.00
2022-12-01T13:38:45.212Z,100.00
2022-12-01T13:41:13.614Z,100.00
2022-12-01T13:43:47.630Z,100.00
2022-12-01T13:46:20.532Z,100.00
2022-12-01T13:48:51.610Z,100.00
2022-12-01T13:51:19.186Z,100.00
2022-12-01T13:54:02.580Z,100.00
2022-12-01T13:56:39.708Z,100.00
2022-12-01T13:59:23.387Z,100.00
2022-12-01T14:01:50.955Z,100.00
2022-12-01T14:04:28.752Z,100.00
2022-12-01T14:07:14.687Z,100.00
2022-12-01T14:09:43.998Z,100.00
2022-12-01T14:12:16.383Z,100.00
2022-12-01T14:14:44.777Z,100.00
2022-12-01T14:17:21.417Z,100.00
2022-12-01T14:19:52.053Z,100.00
2022-12-01T14:22:31.747Z,100.00
2022-12-01T14:25:00.702Z,100.00
2022-12-01T14:27:34.623Z,100.00
2022-12-01T14:30:17.077Z,100.00
2022-12-01T14:32:44.612Z,100.00
2022-12-01T14:35:12.996Z,100.00
2022-12-01T14:37:49.873Z,100.00
2022-12-01T14:40:26.360Z,100.00
2022-12-01T14:43:12.598Z,100.00
2022-12-01T14:45:41.059Z,100.00
2022-12-01T14:48:10.682Z,100.00
2022-12-01T14:50:43.519Z,100.00
2022-12-01T14:53:16.852Z,100.00
2022-12-01T14:55:47.250Z,100.00
2022-12-01T14:58:15.804Z,100.00
2022-12-01T15:00:50.039Z,100.00
2022-12-01T15:03:17.525Z,100.00
2022-12-01T15:05:45.092Z,100.00
2022-12-01T15:08:40.465Z,100.00
2022-12-01T15:11:10.960Z,100.00
2022-12-01T15:13:45.126Z,100.00
2022-12-01T15:16:16.081Z,100.00
2022-12-01T15:18:43.669Z,100.00
2022-12-01T15:21:11.863Z,100.00
2022-12-01T15:23:52.794Z,100.00
2022-12-01T15:26:21.997Z,100.00
2022-12-01T15:28:49.459Z,100.00
2022-12-01T15:31:16.970Z,100.00
2022-12-01T15:33:46.726Z,100.00
2022-12-01T15:36:14.258Z,100.00
2022-12-01T15:38:42.161Z,100.00
2022-12-01T15:41:28.936Z,100.00
2022-12-01T15:43:59.092Z,100.00
2022-12-01T15:46:29.868Z,100.00
2022-12-01T15:49:09.675Z,100.00
2022-12-01T15:51:37.152Z,100.00
2022-12-01T15:54:04.707Z,100.00
2022-12-01T15:56:32.913Z,100.00
2022-12-01T15:59:03.148Z,100.00
2022-12-01T16:01:30.942Z,100.00
2022-12-01T16:03:59.459Z,100.00
2022-12-01T16:06:27.703Z,100.00
2022-12-01T16:08:57.217Z,100.00
2022-12-01T16:11:24.788Z,100.00
2022-12-01T16:13:58.201Z,100.00
2022-12-01T16:16:31.411Z,100.00
2022-12-01T16:19:00.110Z,100.00
2022-12-01T16:21:27.623Z,100.00
2022-12-01T16:24:01.934Z,100.00
2022-12-01T16:26:29.844Z,100.00
2022-12-01T16:28:57.402Z,100.00
2022-12-01T16:31:25.106Z,100.00
2022-12-01T16:34:06.558Z,100.00
2022-12-01T16:36:41.595Z,100.00
2022-12-01T16:39:09.267Z,100.00
2022-12-01T16:41:38.776Z,100.00
2022-12-01T16:44:27.596Z,100.00
2022-12-01T16:46:53.831Z,100.00
2022-12-01T16:49:22.695Z,100.00
2022-12-01T16:51:56.164Z,100.00
2022-12-01T16:54:24.508Z,100.00
2022-12-01T16:56:52.048Z,100.00
2022-12-01T16:59:20.062Z,100.00
2022-12-01T17:01:47.657Z,100.00
2022-12-01T17:04:15.191Z,100.00
2022-12-01T17:06:44.034Z,100.00
2022-12-01T17:09:11.536Z,100.00
2022-12-01T17:11:39.092Z,100.00
2022-12-01T17:14:06.601Z,100.00
2022-12-01T17:16:34.197Z,100.00
2022-12-01T17:19:01.728Z,100.00
2022-12-01T17:21:29.231Z,100.00
2022-12-01T17:23:58.086Z,100.00
2022-12-01T17:26:25.640Z,100.00
2022-12-01T17:28:54.206Z,100.00
2022-12-01T17:31:22.269Z,100.00
2022-12-01T17:33:50.444Z,100.00
2022-12-01T17:36:18.124Z,100.00
2022-12-01T17:38:46.410Z,100.00
2022-12-01T17:41:15.996Z,100.00
2022-12-01T17:43:43.652Z,100.00
2022-12-01T17:46:11.674Z,100.00
2022-12-01T17:48:39.644Z,100.00
2022-12-01T17:51:08.680Z,100.00
2022-12-01T17:53:36.252Z,100.00
2022-12-01T17:56:03.903Z,100.00
2022-12-01T17:58:32.793Z,100.00
2022-12-01T18:01:00.335Z,100.00
2022-12-01T18:03:27.838Z,100.00
2022-12-01T18:05:55.999Z,100.00
2022-12-01T18:08:23.558Z,100.00
2022-12-01T18:10:51.444Z,100.00
2022-12-01T18:13:21.300Z,100.00
2022-12-01T18:15:50.459Z,100.00
2022-12-01T18:18:18.005Z,100.00
2022-12-01T18:20:45.758Z,100.00
2022-12-01T18:23:13.784Z,100.00
2022-12-01T18:25:41.425Z,100.00
2022-12-01T18:28:10.982Z,100.00
2022-12-01T18:30:38.903Z,100.00
2022-12-01T18:33:10.986Z,100.00
2022-12-01T18:35:43.364Z,100.00
2022-12-01T18:38:10.947Z,100.00
2022-12-01T18:40:38.627Z,100.00
2022-12-01T18:43:06.180Z,100.00
2022-12-01T18:45:33.643Z,100.00
2022-12-01T18:48:01.149Z,100.00
2022-12-01T18:50:30.046Z,100.00
2022-12-01T18:52:57.581Z,100.00
2022-12-01T18:55:25.080Z,100.00
2022-12-01T18:57:52.620Z,100.00
2022-12-01T19:00:20.468Z,100.00
2022-12-01T19:02:47.998Z,100.00
2022-12-01T19:05:15.561Z,100.00
2022-12-01T19:07:44.504Z,100.00
2022-12-01T19:10:12.438Z,100.00
2022-12-01T19:12:41.324Z,100.00
2022-12-01T19:15:09.514Z,100.00
2022-12-01T19:17:37.361Z,100.00
2022-12-01T19:20:05.388Z,100.00
2022-12-01T19:22:33.051Z,100.00
2022-12-01T19:25:01.940Z,100.00
2022-12-01T19:27:30.412Z,100.00
2022-12-01T19:29:57.967Z,100.00
2022-12-01T19:32:25.794Z,100.00
2022-12-01T19:34:53.323Z,100.00
2022-12-01T19:37:21.044Z,100.00
2022-12-01T19:39:48.504Z,100.00
2022-12-01T19:42:17.405Z,100.00
2022-12-01T19:44:44.902Z,100.00
2022-12-01T19:47:12.445Z,100.00
2022-12-01T19:49:39.895Z,100.00
2022-12-01T19:52:07.402Z,100.00
2022-12-01T19:54:35.346Z,100.00
2022-12-01T19:57:02.865Z,100.00
2022-12-01T19:59:31.737Z,100.00
2022-12-01T20:01:59.365Z,100.00
2022-12-01T20:04:26.899Z,100.00
2022-12-01T20:06:54.395Z,100.00
2022-12-01T20:09:21.869Z,100.00
2022-12-01T20:11:49.348Z,100.00
2022-12-01T20:14:16.912Z,100.00
2022-12-01T20:16:45.853Z,100.00
2022-12-01T20:19:13.367Z,100.00
2022-12-01T20:21:43.120Z,100.00
2022-12-01T20:24:11.921Z,100.00
2022-12-01T20:26:40.264Z,100.00
2022-12-01T20:29:08.844Z,100.00
2022-12-01T20:31:36.859Z,100.00
2022-12-01T20:34:07.119Z,100.00
2022-12-01T20:36:34.742Z,100.00
2022-12-01T20:39:02.256Z,100.00
2022-12-01T20:41:29.733Z,100.00
2022-12-01T20:43:58.509Z,100.00
2022-12-01T20:46:28.718Z,100.00
2022-12-01T20:48:56.338Z,100.00
2022-12-01T20:51:25.174Z,100.00
2022-12-01T20:54:19.834Z,100.00
2022-12-01T20:56:40.163Z,100.00
2022-12-01T20:59:07.685Z,100.00
2022-12-01T21:01:35.514Z,100.00
2022-12-01T21:04:03.099Z,100.00
2022-12-01T21:06:32.011Z,100.00
2022-12-01T21:08:59.567Z,100.00
2022-12-01T21:11:42.192Z,100.00
2022-12-01T21:14:10.752Z,100.00
2022-12-01T21:16:38.320Z,100.00
2022-12-01T21:19:11.257Z,100.00
2022-12-01T21:21:41.031Z,100.00
2022-12-01T21:24:13.507Z,100.00
2022-12-01T21:26:42.068Z,100.00
2022-12-01T21:29:14.730Z,100.00
2022-12-01T21:31:42.225Z,99.36
2022-12-01T21:34:10.165Z,98.38
2022-12-01T21:36:37.680Z,96.82
2022-12-01T21:39:21.405Z,100.00
2022-12-01T21:41:49.448Z,99.34
2022-12-01T21:44:17.412Z,97.19
2022-12-01T21:46:44.975Z,100.00
2022-12-01T21:49:16.978Z,97.29
2022-12-01T21:51:44.525Z,94.23
2022-12-01T21:54:15.019Z,100.00
2022-12-01T21:56:42.633Z,95.56
2022-12-01T21:59:15.209Z,93.85
2022-12-01T22:01:42.854Z,93.91
2022-12-01T22:04:12.364Z,95.66
2022-12-01T22:06:40.346Z,94.23
2022-12-01T22:09:14.372Z,96.31
2022-12-01T22:11:42.144Z,98.53
2022-12-01T22:14:12.174Z,94.40
2022-12-01T22:16:42.281Z,93.91
2022-12-01T22:19:18.203Z,96.87
2022-12-01T22:21:46.758Z,99.06
2022-12-01T22:24:25.628Z,99.43
2022-12-01T22:26:54.709Z,97.25
2022-12-01T22:29:24.607Z,97.81
2022-12-01T22:31:52.075Z,100.00
2022-12-01T22:34:19.532Z,100.00
2022-12-01T22:36:47.037Z,100.00
2022-12-01T22:39:23.635Z,97.13
2022-12-01T22:41:52.504Z,97.94
2022-12-01T22:44:20.137Z,96.34
2022-12-01T22:46:47.728Z,95.70
2022-12-01T22:49:19.568Z,96.36
2022-12-01T22:51:47.889Z,97.04
2022-12-01T22:54:33.267Z,95.59
2022-12-01T22:57:12.239Z,97.67
2022-12-01T22:59:40.467Z,98.14
2022-12-01T23:02:19.304Z,95.41
2022-12-01T23:04:48.447Z,96.10
2022-12-01T23:07:24.142Z,98.28
2022-12-01T23:09:51.610Z,92.85
2022-12-01T23:12:26.047Z,92.82
2022-12-01T23:14:56.886Z,92.20
2022-12-01T23:17:25.903Z,90.16
2022-12-01T23:19:54.022Z,88.84
2022-12-01T23:22:21.477Z,91.96
2022-12-01T23:24:49.375Z,92.72
2022-12-01T23:27:17.214Z,90.90
2022-12-01T23:29:46.050Z,90.28
2022-12-01T23:32:13.567Z,90.69
2022-12-01T23:34:41.120Z,91.11
2022-12-01T23:37:12.892Z,91.21
2022-12-01T23:39:40.362Z,91.57
2022-12-01T23:42:09.771Z,93.56
2022-12-01T23:44:38.589Z,90.90
2022-12-01T23:47:09.745Z,92.40
2022-12-01T23:49:37.187Z,89.75
2022-12-01T23:52:04.897Z,90.12
2022-12-01T23:54:32.918Z,89.59
2022-12-01T23:57:01.955Z,92.13
2022-12-01T23:59:29.403Z,89.80
